createdAt,value
2022-08-04T00:00:49.784Z,2.00
2022-08-04T00:03:28.939Z,1.83
2022-08-04T00:06:04.511Z,1.73
2022-08-04T00:08:55.769Z,1.98
2022-08-04T00:11:25.160Z,1.83
2022-08-04T00:14:05.802Z,1.88
2022-08-04T00:16:38.292Z,2.13
2022-08-04T00:19:12.016Z,2.15
2022-08-04T00:21:42.312Z,2.10
2022-08-04T00:24:12.960Z,2.05
2022-08-04T00:26:40.336Z,2.30
2022-08-04T00:29:10.140Z,1.90
2022-08-04T00:31:57.101Z,2.25
2022-08-04T00:34:28.470Z,1.90
2022-08-04T00:36:56.005Z,2.25
2022-08-04T00:39:22.992Z,2.25
2022-08-04T00:42:01.714Z,2.03
2022-08-04T00:44:32.942Z,2.10
2022-08-04T00:47:14.297Z,1.90
2022-08-04T00:49:59.015Z,2.20
2022-08-04T00:53:05.446Z,2.25
2022-08-04T00:55:50.586Z,2.00
2022-08-04T00:58:40.274Z,1.85
2022-08-04T01:01:14.187Z,2.40
2022-08-04T01:04:10.406Z,2.10
2022-08-04T01:06:41.758Z,2.10
2022-08-04T01:09:21.432Z,2.20
2022-08-04T01:12:20.961Z,2.20
2022-08-04T01:19:00.224Z,2.25
2022-08-04T01:21:29.440Z,1.95
2022-08-04T01:24:49.611Z,2.40
2022-08-04T01:27:49.175Z,2.13
2022-08-04T01:30:16.267Z,2.30
2022-08-04T01:32:53.710Z,2.50
2022-08-04T01:35:47.768Z,2.20
2022-08-04T01:38:21.244Z,2.50
2022-08-04T01:40:59.409Z,2.33
2022-08-04T01:43:28.400Z,2.25
2022-08-04T01:45:59.931Z,2.38
2022-08-04T01:48:27.414Z,2.20
2022-08-04T01:50:58.069Z,2.30
2022-08-04T01:53:31.934Z,2.42
2022-08-04T01:56:00.694Z,2.08
2022-08-04T01:58:32.523Z,2.15
2022-08-04T02:01:10.792Z,2.30
2022-08-04T02:04:18.470Z,2.13
2022-08-04T02:07:07.398Z,2.22
2022-08-04T02:09:54.481Z,2.03
2022-08-04T02:12:43.468Z,2.30
2022-08-04T02:15:45.803Z,2.30
2022-08-04T02:18:32.766Z,2.50
2022-08-04T02:21:03.069Z,2.50
2022-08-04T02:23:43.592Z,2.65
2022-08-04T02:26:22.542Z,2.33
2022-08-04T02:29:18.077Z,2.60
2022-08-04T02:31:58.085Z,2.15
2022-08-04T02:34:38.884Z,2.95
2022-08-04T02:37:07.118Z,2.10
2022-08-04T02:39:42.416Z,2.45
2022-08-04T02:42:17.337Z,2.72
2022-08-04T02:44:49.804Z,2.33
2022-08-04T02:47:21.755Z,2.40
2022-08-04T02:49:51.114Z,2.28
2022-08-04T02:52:19.767Z,2.55
2022-08-04T02:54:51.197Z,2.08
2022-08-04T02:57:26.753Z,2.60
2022-08-04T03:00:14.730Z,2.58
2022-08-04T03:03:01.143Z,2.40
2022-08-04T03:06:10.801Z,2.38
2022-08-04T03:08:58.651Z,2.72
2022-08-04T03:11:49.715Z,2.80
2022-08-04T03:14:44.289Z,3.00
2022-08-04T03:17:52.592Z,2.63
2022-08-04T03:20:39.418Z,2.70
2022-08-04T03:23:14.772Z,2.70
2022-08-04T03:26:11.832Z,2.65
2022-08-04T03:29:25.989Z,2.65
2022-08-04T03:32:18.143Z,2.38
2022-08-04T03:35:28.963Z,2.50
2022-08-04T03:38:14.182Z,2.80
2022-08-04T03:41:07.878Z,2.85
2022-08-04T03:43:59.970Z,2.50
2022-08-04T03:46:55.054Z,2.90
2022-08-04T03:49:36.855Z,2.60
2022-08-04T03:52:33.612Z,2.85
2022-08-04T03:55:09.258Z,2.63
2022-08-04T03:57:41.759Z,2.92
2022-08-04T04:00:13.993Z,2.58
2022-08-04T04:02:55.770Z,2.80
2022-08-04T04:06:00.257Z,2.75
2022-08-04T04:08:49.614Z,2.60
2022-08-04T04:11:54.294Z,3.28
2022-08-04T04:15:03.443Z,2.75
2022-08-04T04:17:46.999Z,2.63
2022-08-04T04:20:54.347Z,3.10
2022-08-04T04:23:26.835Z,2.75
2022-08-04T04:26:12.653Z,3.33
2022-08-04T04:28:55.775Z,2.58
2022-08-04T04:31:46.147Z,3.07
2022-08-04T04:34:31.842Z,2.70
2022-08-04T04:37:07.024Z,2.90
2022-08-04T04:39:33.633Z,2.70
2022-08-04T04:42:12.069Z,2.50
2022-08-04T04:45:09.750Z,3.00
2022-08-04T04:48:09.966Z,2.70
2022-08-04T04:50:47.503Z,2.70
2022-08-04T04:53:19.946Z,2.78
2022-08-04T04:55:54.287Z,2.67
2022-08-04T04:58:22.612Z,2.80
2022-08-04T05:01:07.824Z,3.03
2022-08-04T05:03:34.254Z,2.85
2022-08-04T05:06:39.845Z,3.20
2022-08-04T05:09:43.216Z,2.58
2022-08-04T05:14:22.847Z,2.80
2022-08-04T05:17:45.841Z,2.75
2022-08-04T05:20:43.899Z,3.05
2022-08-04T05:23:17.091Z,3.33
2022-08-04T05:25:59.421Z,3.17
2022-08-04T05:28:38.249Z,3.25
2022-08-04T05:31:20.330Z,3.60
2022-08-04T05:33:54.191Z,3.30
2022-08-04T05:36:40.936Z,3.20
2022-08-04T05:39:34.609Z,4.10
2022-08-04T05:42:04.869Z,3.83
2022-08-04T05:44:36.314Z,3.50
2022-08-04T05:47:06.381Z,3.63
2022-08-04T05:49:34.045Z,3.58
2022-08-04T05:52:02.880Z,3.83
2022-08-04T05:54:34.258Z,3.78
2022-08-04T05:57:04.511Z,3.40
2022-08-04T05:59:36.183Z,4.05
2022-08-04T06:02:06.501Z,3.92
2022-08-04T06:04:39.444Z,3.60
2022-08-04T06:07:06.983Z,3.17
2022-08-04T06:09:33.799Z,3.50
2022-08-04T06:12:04.364Z,2.95
2022-08-04T06:14:38.205Z,3.28
2022-08-04T06:17:18.436Z,3.20
2022-08-04T06:20:02.430Z,3.03
2022-08-04T06:22:34.943Z,3.28
2022-08-04T06:25:05.263Z,2.90
2022-08-04T06:27:35.129Z,3.05
2022-08-04T06:30:10.318Z,2.97
2022-08-04T06:32:47.351Z,2.75
2022-08-04T06:35:21.634Z,2.75
2022-08-04T06:37:49.169Z,2.55
2022-08-04T06:40:31.205Z,2.85
2022-08-04T06:43:05.168Z,2.63
2022-08-04T06:45:34.835Z,2.55
2022-08-04T06:48:04.829Z,2.47
2022-08-04T06:51:27.575Z,2.90
2022-08-04T06:53:20.730Z,2.50
2022-08-04T06:55:49.515Z,2.70
2022-08-04T06:58:18.667Z,2.55
2022-08-04T07:00:47.226Z,2.20
2022-08-04T07:03:18.181Z,2.60
2022-08-04T07:05:49.706Z,2.38
2022-08-04T07:08:16.861Z,2.80
2022-08-04T07:10:45.163Z,2.50
2022-08-04T07:13:15.723Z,2.78
2022-08-04T07:15:47.061Z,2.17
2022-08-04T07:18:16.787Z,2.80
2022-08-04T07:20:45.203Z,2.85
2022-08-04T07:23:17.656Z,2.47
2022-08-04T07:26:00.031Z,2.77
2022-08-04T07:28:42.343Z,2.58
2022-08-04T07:31:33.785Z,2.75
2022-08-04T07:34:21.223Z,2.53
2022-08-04T07:36:52.788Z,2.38
2022-08-04T07:39:28.061Z,2.65
2022-08-04T07:41:58.440Z,2.40
2022-08-04T07:44:26.545Z,2.42
2022-08-04T07:46:53.676Z,2.25
2022-08-04T07:49:55.251Z,2.25
2022-08-04T07:52:12.681Z,2.00
2022-08-04T07:54:40.637Z,2.35
2022-08-04T07:57:07.679Z,1.92
2022-08-04T07:59:50.326Z,2.00
2022-08-04T08:02:21.013Z,2.15
2022-08-04T08:04:48.364Z,1.80
2022-08-04T08:07:19.855Z,1.80
2022-08-04T08:09:46.606Z,2.05
2022-08-04T08:12:37.065Z,2.00
2022-08-04T08:15:00.972Z,1.90
2022-08-04T08:17:27.476Z,2.00
2022-08-04T08:19:54.001Z,1.58
2022-08-04T08:22:20.613Z,2.00
2022-08-04T08:24:47.384Z,2.00
2022-08-04T08:27:13.947Z,1.80
2022-08-04T08:29:41.314Z,1.90
2022-08-04T08:32:13.157Z,1.90
2022-08-04T08:34:41.277Z,2.00
2022-08-04T08:37:15.737Z,2.00
2022-08-04T08:40:02.046Z,1.77
2022-08-04T08:42:56.028Z,1.77
2022-08-04T08:45:40.710Z,1.67
2022-08-04T08:48:44.832Z,1.80
2022-08-04T08:51:46.820Z,1.67
2022-08-04T08:57:34.130Z,1.73
2022-08-04T09:00:04.171Z,1.55
2022-08-04T09:03:04.054Z,1.67
2022-08-04T09:06:06.071Z,1.55
2022-08-04T09:08:50.791Z,1.42
2022-08-04T09:11:22.420Z,1.60
2022-08-04T09:13:56.529Z,1.50
2022-08-04T09:16:49.157Z,1.30
2022-08-04T09:19:37.994Z,1.35
2022-08-04T09:22:12.340Z,1.45
2022-08-04T09:24:48.426Z,1.40
2022-08-04T09:27:30.660Z,1.45
2022-08-04T09:30:08.553Z,1.30
2022-08-04T09:32:53.749Z,1.30
2022-08-04T09:35:38.545Z,1.40
2022-08-04T09:38:26.400Z,1.33
2022-08-04T09:41:25.528Z,1.58
2022-08-04T09:44:52.476Z,1.63
2022-08-04T09:47:16.484Z,1.55
2022-08-04T09:50:00.912Z,1.52
2022-08-04T09:52:43.280Z,1.20
2022-08-04T09:55:26.764Z,1.27
2022-08-04T09:58:43.864Z,1.27
2022-08-04T10:01:15.560Z,1.50
2022-08-04T10:03:50.369Z,1.90
2022-08-04T10:06:35.691Z,1.50
2022-08-04T10:09:05.019Z,1.70
2022-08-04T10:11:31.460Z,1.45
2022-08-04T10:14:05.742Z,1.30
2022-08-04T10:16:53.965Z,1.42
2022-08-04T10:19:20.392Z,1.40
2022-08-04T10:21:59.713Z,1.60
2022-08-04T10:25:37.464Z,1.23
2022-08-04T10:28:06.442Z,1.50
2022-08-04T10:30:39.182Z,1.30
2022-08-04T10:33:41.052Z,1.38
2022-08-04T10:36:10.760Z,1.30
2022-08-04T10:38:49.059Z,1.85
2022-08-04T10:41:30.317Z,1.30
2022-08-04T10:44:15.054Z,1.42
2022-08-04T10:46:52.819Z,1.30
2022-08-04T10:49:35.485Z,1.45
2022-08-04T10:52:23.658Z,1.42
2022-08-04T10:56:06.375Z,1.50
2022-08-04T10:58:21.968Z,1.45
2022-08-04T11:01:50.543Z,1.40
2022-08-04T11:04:36.170Z,1.63
2022-08-04T11:07:03.238Z,1.50
2022-08-04T11:09:31.585Z,1.40
2022-08-04T11:12:03.396Z,1.45
2022-08-04T11:14:51.522Z,1.50
2022-08-04T11:17:24.529Z,1.25
2022-08-04T11:20:24.857Z,1.27
2022-08-04T11:23:13.437Z,1.23
2022-08-04T11:25:42.962Z,1.10
2022-08-04T11:28:34.186Z,1.05
2022-08-04T11:31:05.417Z,1.10
2022-08-04T11:34:13.356Z,1.30
2022-08-04T11:37:03.025Z,1.25
2022-08-04T11:39:38.050Z,1.35
2022-08-04T11:42:22.122Z,1.30
2022-08-04T11:45:04.509Z,1.20
2022-08-04T11:47:34.532Z,1.33
2022-08-04T11:50:12.817Z,1.30
2022-08-04T11:52:42.981Z,1.08
2022-08-04T11:55:11.533Z,1.10
2022-08-04T11:57:39.276Z,1.17
2022-08-04T12:00:10.037Z,1.10
2022-08-04T12:03:15.257Z,1.25
2022-08-04T12:06:25.320Z,1.17
2022-08-04T12:09:22.981Z,1.05
2022-08-04T12:12:02.943Z,1.13
2022-08-04T12:14:49.523Z,1.20
2022-08-04T12:17:24.376Z,1.25
2022-08-04T12:20:04.658Z,1.23
2022-08-04T12:22:47.375Z,1.20
2022-08-04T12:25:20.347Z,1.58
2022-08-04T12:31:01.444Z,1.23
2022-08-04T12:33:23.800Z,1.33
2022-08-04T12:36:21.626Z,1.08
2022-08-04T12:39:22.146Z,1.60
2022-08-04T12:41:56.576Z,1.60
2022-08-04T12:44:37.387Z,1.25
2022-08-04T12:47:27.095Z,1.40
2022-08-04T12:50:02.363Z,1.45
2022-08-04T12:53:08.443Z,1.20
2022-08-04T12:55:37.118Z,1.45
2022-08-04T12:58:14.584Z,1.30
2022-08-04T13:00:51.490Z,1.05
2022-08-04T13:03:20.318Z,1.10
2022-08-04T13:05:48.932Z,1.20
2022-08-04T13:08:20.939Z,0.95
2022-08-04T13:10:50.325Z,1.10
2022-08-04T13:13:19.825Z,1.38
2022-08-04T13:16:15.848Z,1.00
2022-08-04T13:18:48.946Z,1.08
2022-08-04T13:21:23.187Z,1.13
2022-08-04T13:24:22.064Z,1.30
2022-08-04T13:27:10.675Z,1.10
2022-08-04T13:29:57.810Z,1.00
2022-08-04T13:32:28.739Z,1.00
2022-08-04T13:34:57.597Z,1.15
2022-08-04T13:37:35.007Z,0.70
2022-08-04T13:40:05.058Z,0.93
2022-08-04T13:42:35.591Z,1.00
2022-08-04T13:45:06.294Z,0.90
2022-08-04T13:47:37.196Z,1.20
2022-08-04T13:50:28.656Z,0.90
2022-08-04T13:52:58.250Z,0.90
2022-08-04T13:55:29.292Z,1.00
2022-08-04T13:58:09.242Z,1.10
2022-08-04T14:00:54.988Z,1.00
2022-08-04T14:03:53.866Z,1.00
2022-08-04T14:06:35.480Z,0.98
2022-08-04T14:09:14.684Z,1.00
2022-08-04T14:12:06.700Z,1.02
2022-08-04T14:14:33.187Z,1.10
2022-08-04T14:17:19.939Z,0.85
2022-08-04T14:19:47.657Z,0.90
2022-08-04T14:22:26.676Z,0.93
2022-08-04T14:25:04.284Z,1.10
2022-08-04T14:27:55.085Z,1.00
2022-08-04T14:30:30.984Z,1.10
2022-08-04T14:34:03.819Z,1.27
2022-08-04T14:36:01.474Z,0.95
2022-08-04T14:38:54.660Z,1.00
2022-08-04T14:41:32.509Z,0.98
2022-08-04T14:44:00.777Z,0.80
2022-08-04T14:46:30.434Z,0.90
2022-08-04T14:49:10.991Z,1.08
2022-08-04T14:51:55.009Z,0.82
2022-08-04T14:54:32.364Z,0.90
2022-08-04T14:57:05.068Z,0.98
2022-08-04T14:59:43.966Z,0.98
2022-08-04T15:02:29.497Z,1.13
2022-08-04T15:04:57.523Z,1.10
2022-08-04T15:07:27.066Z,0.80
2022-08-04T15:09:54.336Z,1.30
2022-08-04T15:12:21.285Z,0.93
2022-08-04T15:14:48.189Z,1.00
2022-08-04T15:17:29.775Z,0.90
2022-08-04T15:19:58.276Z,1.10
2022-08-04T15:22:25.090Z,1.08
2022-08-04T15:24:54.996Z,1.08
2022-08-04T15:27:27.404Z,1.45
2022-08-04T15:30:00.925Z,0.90
2022-08-04T15:32:34.543Z,1.10
2022-08-04T15:35:09.567Z,1.00
2022-08-04T15:37:57.706Z,1.08
2022-08-04T15:40:39.369Z,1.20
2022-08-04T15:43:30.461Z,1.20
2022-08-04T15:46:37.013Z,1.25
2022-08-04T15:48:46.742Z,1.45
2022-08-04T15:51:24.421Z,1.10
2022-08-04T15:54:02.139Z,1.20
2022-08-04T15:56:30.687Z,1.10
2022-08-04T15:58:57.590Z,1.20
2022-08-04T16:01:25.300Z,1.30
2022-08-04T16:03:59.573Z,1.08
2022-08-04T16:06:29.210Z,1.10
2022-08-04T16:09:01.856Z,1.10
2022-08-04T16:11:32.842Z,1.27
2022-08-04T16:13:59.897Z,1.13
2022-08-04T16:16:29.452Z,1.25
2022-08-04T16:19:05.034Z,1.15
2022-08-04T16:21:34.912Z,1.17
2022-08-04T16:24:22.140Z,1.40
2022-08-04T16:26:54.884Z,1.42
2022-08-04T16:29:23.075Z,1.15
2022-08-04T16:32:04.823Z,1.10
2022-08-04T16:34:49.220Z,1.02
2022-08-04T16:37:21.783Z,1.50
2022-08-04T16:39:50.100Z,1.40
2022-08-04T16:42:32.543Z,1.02
2022-08-04T16:45:08.201Z,1.15
2022-08-04T16:47:49.994Z,1.30
2022-08-04T16:50:19.009Z,1.50
2022-08-04T16:52:51.102Z,1.70
2022-08-04T16:55:22.030Z,1.48
2022-08-04T16:57:53.825Z,1.20
2022-08-04T17:00:40.932Z,1.40
2022-08-04T17:03:12.327Z,1.20
2022-08-04T17:05:40.413Z,1.30
2022-08-04T17:10:55.856Z,1.20
2022-08-04T17:14:02.405Z,1.63
2022-08-04T17:16:20.905Z,1.38
2022-08-04T17:18:49.897Z,1.20
2022-08-04T17:21:30.824Z,1.13
2022-08-04T17:24:14.987Z,1.10
2022-08-04T17:29:43.556Z,1.30
2022-08-04T17:32:20.781Z,1.60
2022-08-04T17:34:54.126Z,1.40
2022-08-04T17:37:40.252Z,1.10
2022-08-04T17:40:14.052Z,1.20
2022-08-04T17:42:41.819Z,1.30
2022-08-04T17:48:00.115Z,1.27
2022-08-04T17:50:31.302Z,1.10
2022-08-04T17:53:01.470Z,1.40
2022-08-04T17:55:46.958Z,1.50
2022-08-04T17:58:22.234Z,1.48
2022-08-04T18:03:52.924Z,1.50
2022-08-04T18:06:20.846Z,1.50
2022-08-04T18:08:59.268Z,1.63
2022-08-04T18:11:54.265Z,1.75
2022-08-04T18:14:28.766Z,1.45
2022-08-04T18:16:55.950Z,1.42
2022-08-04T18:19:22.466Z,1.60
2022-08-04T18:22:00.045Z,1.42
2022-08-04T18:24:35.038Z,1.42
2022-08-04T18:27:23.680Z,1.60
2022-08-04T18:32:47.297Z,1.35
2022-08-04T18:35:25.019Z,1.70
2022-08-04T18:38:22.358Z,1.65
2022-08-04T18:40:53.173Z,1.98
2022-08-04T18:43:28.386Z,1.50
2022-08-04T18:45:58.160Z,1.33
2022-08-04T18:48:36.400Z,1.50
2022-08-04T18:51:10.724Z,1.90
2022-08-04T18:53:38.385Z,1.40
2022-08-04T18:56:20.046Z,1.40
2022-08-04T18:58:56.694Z,1.48
2022-08-04T19:01:30.007Z,1.65
2022-08-04T19:04:32.760Z,1.50
2022-08-04T19:07:03.823Z,1.58
2022-08-04T19:09:52.222Z,1.73
2022-08-04T19:12:26.375Z,1.63
2022-08-04T19:14:57.769Z,1.80
2022-08-04T19:17:56.917Z,1.60
2022-08-04T19:20:15.962Z,1.50
2022-08-04T19:24:11.213Z,1.70
2022-08-04T19:25:59.180Z,1.50
2022-08-04T19:28:29.272Z,1.45
2022-08-04T19:30:57.826Z,1.60
2022-08-04T19:33:25.342Z,1.50
2022-08-04T19:35:52.390Z,1.50
2022-08-04T19:38:20.588Z,1.48
2022-08-04T19:40:50.694Z,1.88
2022-08-04T19:43:20.785Z,1.73
2022-08-04T19:45:50.450Z,1.67
2022-08-04T19:48:19.747Z,1.80
2022-08-04T19:51:03.730Z,1.90
2022-08-04T19:53:37.627Z,2.25
2022-08-04T19:56:09.693Z,2.38
2022-08-04T19:58:38.503Z,2.50
2022-08-04T20:01:05.038Z,1.90
2022-08-04T20:04:10.267Z,1.95
2022-08-04T20:06:39.965Z,2.10
2022-08-04T20:09:25.922Z,1.90
2022-08-04T20:11:56.694Z,1.90
2022-08-04T20:14:32.269Z,1.92
2022-08-04T20:17:00.176Z,1.92
2022-08-04T20:19:26.991Z,1.90
2022-08-04T20:21:56.333Z,2.20
2022-08-04T20:24:41.650Z,1.95
2022-08-04T20:27:15.153Z,1.95
2022-08-04T20:32:33.301Z,2.00
2022-08-04T20:35:00.178Z,1.95
2022-08-04T20:37:56.793Z,2.30
2022-08-04T20:40:14.705Z,2.08
2022-08-04T20:42:41.418Z,2.22
2022-08-04T20:45:16.274Z,2.20
2022-08-04T20:47:43.613Z,1.92
2022-08-04T20:50:11.239Z,2.08
2022-08-04T20:52:39.387Z,1.92
2022-08-04T20:55:07.514Z,2.05
2022-08-04T20:57:48.792Z,2.72
2022-08-04T21:00:17.543Z,2.17
2022-08-04T21:02:53.387Z,1.98
2022-08-04T21:05:20.426Z,2.08
2022-08-04T21:07:48.789Z,2.00
2022-08-04T21:10:22.013Z,2.15
2022-08-04T21:12:49.761Z,1.98
2022-08-04T21:15:24.925Z,2.15
2022-08-04T21:17:58.386Z,2.13
2022-08-04T21:20:31.583Z,2.53
2022-08-04T21:23:02.156Z,2.38
2022-08-04T21:25:30.308Z,2.75
2022-08-04T21:28:04.376Z,2.17
2022-08-04T21:30:37.056Z,2.33
2022-08-04T21:33:20.793Z,2.30
2022-08-04T21:35:48.967Z,2.22
2022-08-04T21:38:28.044Z,2.03
2022-08-04T21:40:58.941Z,2.10
2022-08-04T21:46:04.690Z,2.15
2022-08-04T21:48:34.444Z,2.63
2022-08-04T21:51:57.065Z,2.47
2022-08-04T21:54:05.611Z,2.25
2022-08-04T21:56:32.713Z,2.30
2022-08-04T21:58:59.861Z,2.45
2022-08-04T22:01:51.955Z,2.38
2022-08-04T22:04:14.188Z,2.40
2022-08-04T22:06:41.996Z,2.40
2022-08-04T22:09:14.907Z,2.47
2022-08-04T22:11:48.759Z,2.50
2022-08-04T22:14:17.154Z,2.47
2022-08-04T22:16:45.056Z,2.40
2022-08-04T22:19:11.637Z,2.00
2022-08-04T22:21:45.347Z,2.78
2022-08-04T22:24:14.403Z,2.83
2022-08-04T22:26:41.392Z,2.70
2022-08-04T22:29:14.467Z,2.70
2022-08-04T22:31:53.156Z,2.75
2022-08-04T22:34:23.801Z,2.60
2022-08-04T22:36:50.646Z,3.65
2022-08-04T22:39:17.357Z,3.47
2022-08-04T22:42:02.836Z,4.00
2022-08-04T22:44:32.231Z,2.58
2022-08-04T22:47:01.548Z,2.45
2022-08-04T22:49:31.893Z,2.75
2022-08-04T22:51:59.881Z,2.90
2022-08-04T22:54:36.088Z,2.80
2022-08-04T22:57:02.587Z,2.78
2022-08-04T22:59:29.042Z,2.95
2022-08-04T23:02:00.601Z,2.65
2022-08-04T23:04:29.641Z,2.60
2022-08-04T23:06:56.337Z,3.00
2022-08-04T23:09:49.125Z,2.83
2022-08-04T23:12:25.013Z,2.85
2022-08-04T23:14:54.829Z,3.00
2022-08-04T23:17:21.716Z,3.40
2022-08-04T23:19:57.831Z,3.55
2022-08-04T23:22:37.040Z,3.25
2022-08-04T23:25:16.302Z,3.05
2022-08-04T23:27:51.201Z,2.88
2022-08-04T23:30:29.920Z,3.20
2022-08-04T23:32:57.007Z,2.97
2022-08-04T23:35:23.565Z,2.95
2022-08-04T23:37:57.253Z,3.38
2022-08-04T23:40:34.141Z,3.30
2022-08-04T23:43:16.956Z,3.30
2022-08-04T23:46:08.295Z,3.55
2022-08-04T23:48:31.439Z,3.88
2022-08-04T23:51:14.241Z,3.40
2022-08-04T23:54:03.092Z,3.50
2022-08-04T23:56:34.845Z,3.50
2022-08-04T23:59:03.752Z,3.70
